Time;durP1;ratioP1;P1;durP2;ratioP2;P2;SDS_P1;SDS_P2;PMS_P1;PMS_P2;Temp;Humidity;BMP_temperature;BMP_pressure;BME280_temperature;BME280_humidity;BME280_pressure;Samples;Min_cycle;Max_cycle;Signal;HPM_P1;HPM_P2
2022/02/06 00:01:12;;;;;;;;;;;12.90;54.80;;;;;;5161719;27;20018;-70
2022/02/06 00:03:39;;;;;;;;;;;12.80;54.80;;;;;;5160966;27;19974;-69
2022/02/06 00:06:04;;;;;;;;;;;12.80;54.90;;;;;;5161889;27;19915;-69
2022/02/06 00:08:30;;;;;;;;;;;12.80;54.80;;;;;;5161775;27;19935;-70
2022/02/06 00:10:56;;;;;;;;;;;12.80;54.80;;;;;;5161649;27;19903;-70
2022/02/06 00:13:21;;;;;;;;;;;12.80;54.80;;;;;;5161806;27;19987;-69
2022/02/06 00:15:47;;;;;;;;;;;12.80;54.80;;;;;;5161579;27;19918;-70
2022/02/06 00:18:13;;;;;;;;;;;12.80;54.90;;;;;;5161721;27;19970;-70
2022/02/06 00:20:49;;;;;;;;;;;12.80;54.80;;;;;;5161455;27;19932;-70
2022/02/06 00:23:17;;;;;;;;;;;12.80;54.80;;;;;;5161603;27;19952;-70
2022/02/06 00:28:22;;;;;;;;;;;12.80;54.70;;;;;;5161587;27;19910;-69
2022/02/06 00:31:31;;;;;;;;;;;12.80;54.70;;;;;;5161557;27;19918;-70
2022/02/06 00:34:27;;;;;;;;;;;12.80;54.80;;;;;;5157259;27;19923;-70
2022/02/06 00:39:15;;;;;;;;;;;12.80;54.70;;;;;;5161479;27;19979;-70
2022/02/06 00:41:41;;;;;;;;;;;12.80;54.70;;;;;;5161480;27;19911;-70
2022/02/06 00:44:07;;;;;;;;;;;12.80;54.70;;;;;;5161373;27;19911;-70
2022/02/06 00:46:37;;;;;;;;;;;12.80;54.80;;;;;;5161442;27;19919;-69
2022/02/06 00:49:24;;;;;;;;;;;12.80;54.70;;;;;;5161459;27;19911;-69
2022/02/06 00:51:56;;;;;;;;;;;12.80;54.90;;;;;;5161437;27;19946;-70
2022/02/06 00:54:22;;;;;;;;;;;12.80;54.80;;;;;;5161444;27;19918;-70
2022/02/06 00:56:48;;;;;;;;;;;12.80;54.80;;;;;;5161344;27;19938;-69
2022/02/06 00:59:13;;;;;;;;;;;12.80;54.80;;;;;;5161428;27;19909;-69
2022/02/06 01:01:42;;;;;;;;;;;12.80;54.80;;;;;;5161291;27;19982;-70
2022/02/06 01:04:09;;;;;;;;;;;12.80;54.80;;;;;;5161154;27;20230;-70
2022/02/06 01:06:34;;;;;;;;;;;12.80;54.70;;;;;;5161283;27;19911;-70
2022/02/06 01:09:00;;;;;;;;;;;12.80;54.80;;;;;;5161306;27;19910;-70
2022/02/06 01:11:26;;;;;;;;;;;12.80;54.80;;;;;;5161280;27;19909;-70
2022/02/06 01:16:23;;;;;;;;;;;12.80;54.90;;;;;;5164816;27;19952;-70
2022/02/06 01:19:02;;;;;;;;;;;12.70;54.70;;;;;;5165154;27;19910;-71
2022/02/06 01:21:55;;;;;;;;;;;12.80;54.80;;;;;;5164945;27;19919;-70
2022/02/06 01:27:22;;;;;;;;;;;12.80;54.80;;;;;;5146678;27;19907;-69
2022/02/06 01:30:00;;;;;;;;;;;12.80;54.80;;;;;;5164956;27;19919;-70
2022/02/06 01:32:36;;;;;;;;;;;12.80;54.80;;;;;;5164868;27;19997;-70
2022/02/06 01:35:10;;;;;;;;;;;12.80;54.80;;;;;;5164888;27;19946;-70
2022/02/06 01:37:47;;;;;;;;;;;12.80;54.80;;;;;;5164979;27;19909;-70
2022/02/06 01:40:28;;;;;;;;;;;12.80;54.80;;;;;;5164887;27;19919;-70
2022/02/06 01:43:01;;;;;;;;;;;12.80;54.80;;;;;;5164758;27;19903;-70
2022/02/06 01:45:53;;;;;;;;;;;12.70;54.70;;;;;;5164616;27;19994;-70
2022/02/06 02:02:16;;;;;;;;;;;12.80;54.70;;;;;;5164181;27;19943;-69
2022/02/06 02:12:48;;;;;;;;;;;12.80;54.70;;;;;;5164069;27;19919;-70
2022/02/06 02:21:04;;;;;;;;;;;12.70;54.70;;;;;;5164189;27;19911;-69
2022/02/06 02:48:02;;;;;;;;;;;12.70;54.60;;;;;;5163392;27;19944;-69
2022/02/06 02:50:30;;;;;;;;;;;12.70;55.30;;;;;;5163348;27;19912;-69
2022/02/06 03:00:44;;;;;;;;;;;12.70;54.80;;;;;;5163006;27;19907;-69
2022/02/06 03:03:20;;;;;;;;;;;12.70;54.70;;;;;;5162895;27;19953;-69
2022/02/06 03:05:49;;;;;;;;;;;12.70;54.70;;;;;;5144544;27;19924;-69
2022/02/06 03:08:14;;;;;;;;;;;12.60;54.80;;;;;;5162980;27;19911;-70
2022/02/06 03:10:40;;;;;;;;;;;12.60;54.70;;;;;;5144422;27;20162;-70
2022/02/06 03:13:09;;;;;;;;;;;12.60;54.80;;;;;;5162798;27;19919;-70
2022/02/06 03:15:46;;;;;;;;;;;12.60;54.60;;;;;;5162793;27;19982;-70
2022/02/06 03:18:26;;;;;;;;;;;12.60;54.80;;;;;;5162834;27;19911;-70
2022/02/06 03:20:53;;;;;;;;;;;12.60;54.90;;;;;;5162640;27;20183;-69
2022/02/06 03:23:19;;;;;;;;;;;12.60;54.80;;;;;;5162599;27;20393;-69
2022/02/06 03:25:52;;;;;;;;;;;12.60;54.80;;;;;;5162536;27;19926;-71
2022/02/06 03:28:19;;;;;;;;;;;12.60;55.00;;;;;;5162573;27;19985;-69
2022/02/06 03:30:44;;;;;;;;;;;12.60;54.90;;;;;;5162525;27;19918;-70
2022/02/06 03:33:10;;;;;;;;;;;12.60;54.80;;;;;;5162372;27;19930;-70
2022/02/06 03:35:36;;;;;;;;;;;12.60;54.90;;;;;;5162378;27;19907;-70
2022/02/06 03:38:02;;;;;;;;;;;12.60;54.80;;;;;;5142943;27;19911;-71
2022/02/06 03:40:32;;;;;;;;;;;12.70;54.70;;;;;;5143747;27;19922;-69
2022/02/06 03:43:09;;;;;;;;;;;12.60;54.70;;;;;;5162213;27;19951;-69
2022/02/06 03:48:14;;;;;;;;;;;12.60;54.60;;;;;;5162402;27;19907;-70
2022/02/06 03:50:45;;;;;;;;;;;12.70;54.50;;;;;;5162073;27;19952;-69
2022/02/06 03:53:12;;;;;;;;;;;12.70;54.70;;;;;;5143765;27;19974;-69
2022/02/06 03:55:38;;;;;;;;;;;12.60;54.60;;;;;;5161971;27;20234;-70
2022/02/06 03:58:04;;;;;;;;;;;12.60;54.60;;;;;;5161917;27;19911;-70
2022/02/06 04:00:29;;;;;;;;;;;12.60;54.70;;;;;;5161874;27;19919;-70
2022/02/06 04:02:55;;;;;;;;;;;12.60;54.60;;;;;;5161714;27;19947;-70
2022/02/06 04:05:21;;;;;;;;;;;12.60;54.50;;;;;;5161818;27;19926;-69
2022/02/06 04:07:47;;;;;;;;;;;12.50;54.60;;;;;;5161733;27;19948;-69
2022/02/06 04:10:15;;;;;;;;;;;12.60;54.40;;;;;;5161766;27;19926;-69
2022/02/06 04:12:43;;;;;;;;;;;12.50;54.50;;;;;;5161743;27;19907;-69
2022/02/06 04:15:19;;;;;;;;;;;12.60;54.60;;;;;;5161696;27;19953;-70
2022/02/06 04:17:49;;;;;;;;;;;12.60;54.80;;;;;;5161800;27;19946;-69
2022/02/06 04:20:15;;;;;;;;;;;12.60;54.80;;;;;;5161542;27;19912;-70
2022/02/06 04:22:40;;;;;;;;;;;12.60;54.70;;;;;;5161618;27;19916;-70
2022/02/06 04:25:06;;;;;;;;;;;12.60;54.50;;;;;;5161596;27;19903;-71
2022/02/06 04:27:32;;;;;;;;;;;12.60;54.20;;;;;;5161631;27;19917;-71
2022/02/06 04:29:57;;;;;;;;;;;12.50;54.60;;;;;;5161578;27;20444;-71
2022/02/06 04:32:26;;;;;;;;;;;12.50;54.80;;;;;;5161613;27;19915;-71
2022/02/06 04:34:53;;;;;;;;;;;12.60;54.80;;;;;;5161630;27;19924;-70
2022/02/06 04:42:44;;;;;;;;;;;12.60;54.70;;;;;;5161426;27;20099;-70
2022/02/06 05:30:17;;;;;;;;;;;12.50;54.60;;;;;;5080429;28;19946;-69
2022/02/06 05:35:21;;;;;;;;;;;12.40;54.10;;;;;;5165008;27;20203;-68
2022/02/06 05:37:47;;;;;;;;;;;12.30;54.20;;;;;;5164655;27;20238;-70
2022/02/06 05:40:12;;;;;;;;;;;12.40;54.50;;;;;;5164510;27;19982;-69
2022/02/06 05:42:38;;;;;;;;;;;12.40;54.50;;;;;;5164610;27;19911;-69
2022/02/06 05:45:04;;;;;;;;;;;12.40;54.40;;;;;;5164515;27;19986;-69
2022/02/06 05:47:30;;;;;;;;;;;12.30;54.20;;;;;;5164495;27;19911;-70
2022/02/06 05:49:56;;;;;;;;;;;12.30;54.20;;;;;;5164433;27;19930;-70
2022/02/06 05:52:22;;;;;;;;;;;12.30;54.20;;;;;;5164435;27;19910;-70
2022/02/06 05:54:48;;;;;;;;;;;12.20;54.20;;;;;;5164348;27;19911;-69
2022/02/06 05:57:14;;;;;;;;;;;12.20;54.40;;;;;;5164312;27;20004;-70
2022/02/06 05:59:40;;;;;;;;;;;12.20;54.50;;;;;;5164227;27;19911;-69
2022/02/06 06:02:05;;;;;;;;;;;12.20;54.60;;;;;;5163112;27;20429;-70
2022/02/06 06:04:31;;;;;;;;;;;12.30;54.40;;;;;;5164059;27;19915;-69
2022/02/06 06:06:57;;;;;;;;;;;12.40;55.00;;;;;;5164103;27;20201;-69
2022/02/06 06:09:22;;;;;;;;;;;12.40;54.50;;;;;;5145382;27;20150;-70
2022/02/06 06:11:48;;;;;;;;;;;12.40;53.90;;;;;;5163995;27;19918;-69
2022/02/06 06:14:14;;;;;;;;;;;12.40;54.30;;;;;;5163930;27;20283;-70
2022/02/06 06:16:39;;;;;;;;;;;12.30;54.00;;;;;;5163907;27;19917;-70
2022/02/06 06:19:05;;;;;;;;;;;12.20;54.20;;;;;;5163837;27;19903;-70
2022/02/06 06:21:37;;;;;;;;;;;12.30;54.50;;;;;;5163607;27;19911;-69
2022/02/06 06:24:02;;;;;;;;;;;12.20;55.00;;;;;;5163812;27;19956;-69
2022/02/06 06:26:33;;;;;;;;;;;12.20;54.30;;;;;;5163771;27;19911;-70
2022/02/06 06:28:59;;;;;;;;;;;12.20;54.30;;;;;;5163681;27;19915;-69
2022/02/06 06:31:26;;;;;;;;;;;12.20;54.30;;;;;;5163572;27;19911;-70
2022/02/06 06:33:51;;;;;;;;;;;12.20;54.40;;;;;;5163651;27;19908;-69
2022/02/06 06:36:20;;;;;;;;;;;12.10;54.40;;;;;;5163532;27;20092;-71
2022/02/06 06:38:46;;;;;;;;;;;12.10;54.50;;;;;;5163519;27;20358;-70
2022/02/06 06:41:11;;;;;;;;;;;12.10;54.80;;;;;;5163413;27;19951;-69
2022/02/06 06:43:37;;;;;;;;;;;12.20;54.70;;;;;;5163312;27;19964;-70
2022/02/06 06:46:03;;;;;;;;;;;12.20;54.90;;;;;;5163328;27;20195;-70
2022/02/06 06:48:28;;;;;;;;;;;12.40;54.80;;;;;;5163222;27;19911;-70
2022/02/06 06:50:54;;;;;;;;;;;12.40;54.50;;;;;;5163132;27;19922;-69
2022/02/06 06:53:20;;;;;;;;;;;12.40;54.30;;;;;;5163182;27;20262;-69
2022/02/06 06:55:56;;;;;;;;;;;12.40;54.00;;;;;;5163111;27;19907;-69
2022/02/06 06:58:31;;;;;;;;;;;12.40;54.10;;;;;;5163216;27;20455;-69
2022/02/06 07:03:23;;;;;;;;;;;12.30;54.70;;;;;;5162941;27;19923;-69
2022/02/06 07:05:49;;;;;;;;;;;12.30;54.10;;;;;;5144206;27;19910;-69
2022/02/06 07:08:16;;;;;;;;;;;12.30;54.40;;;;;;5144224;27;20148;-69
2022/02/06 07:10:42;;;;;;;;;;;12.30;54.50;;;;;;5144265;27;19903;-69
2022/02/06 07:13:07;;;;;;;;;;;12.40;55.00;;;;;;5162662;27;19938;-70
2022/02/06 07:15:33;;;;;;;;;;;12.40;54.60;;;;;;5162707;27;20195;-69
2022/02/06 07:17:59;;;;;;;;;;;12.50;54.50;;;;;;5144066;27;19971;-69
2022/02/06 07:20:24;;;;;;;;;;;12.50;54.10;;;;;;5162604;27;19942;-70
2022/02/06 07:22:50;;;;;;;;;;;12.50;53.70;;;;;;5162590;27;19903;-70
2022/02/06 07:25:16;;;;;;;;;;;12.40;54.00;;;;;;5162488;27;19903;-70
2022/02/06 07:27:46;;;;;;;;;;;12.40;54.30;;;;;;5162590;27;19911;-70
2022/02/06 07:30:13;;;;;;;;;;;12.40;54.40;;;;;;5162507;27;19934;-69
2022/02/06 07:32:38;;;;;;;;;;;12.40;54.30;;;;;;5162375;27;19911;-70
2022/02/06 07:35:05;;;;;;;;;;;12.40;54.40;;;;;;5162342;27;20273;-69
2022/02/06 07:37:31;;;;;;;;;;;12.40;54.20;;;;;;5162323;27;19979;-68
2022/02/06 07:39:57;;;;;;;;;;;12.40;53.80;;;;;;5162148;27;20169;-70
2022/02/06 07:42:23;;;;;;;;;;;12.30;53.80;;;;;;5162201;27;19922;-70
2022/02/06 07:44:49;;;;;;;;;;;12.30;53.90;;;;;;5162148;27;19925;-70
2022/02/06 07:47:23;;;;;;;;;;;12.30;54.70;;;;;;5162083;27;20160;-70
2022/02/06 07:49:50;;;;;;;;;;;12.40;54.70;;;;;;5162126;27;19909;-69
2022/02/06 07:52:20;;;;;;;;;;;12.40;54.60;;;;;;5162071;27;19907;-69
2022/02/06 07:54:46;;;;;;;;;;;12.40;54.60;;;;;;5161936;27;19903;-69
2022/02/06 07:57:12;;;;;;;;;;;12.50;54.60;;;;;;5162063;27;19911;-70
2022/02/06 07:59:37;;;;;;;;;;;12.50;54.60;;;;;;5161972;27;19918;-70
2022/02/06 08:02:04;;;;;;;;;;;12.50;54.50;;;;;;5161792;27;19911;-69
2022/02/06 08:04:30;;;;;;;;;;;12.50;54.30;;;;;;5161791;27;19978;-69
2022/02/06 08:06:56;;;;;;;;;;;12.60;54.30;;;;;;5161783;27;20206;-69
2022/02/06 08:09:57;;;;;;;;;;;12.50;54.30;;;;;;5161912;27;20099;-69
2022/02/06 08:12:14;;;;;;;;;;;12.50;54.20;;;;;;5158523;27;19903;-69
2022/02/06 08:14:54;;;;;;;;;;;12.50;54.10;;;;;;5161599;27;20233;-69
2022/02/06 08:17:25;;;;;;;;;;;12.50;54.10;;;;;;5161700;27;19947;-70
2022/02/06 08:19:51;;;;;;;;;;;12.50;54.20;;;;;;5161670;27;19933;-70
2022/02/06 08:22:17;;;;;;;;;;;12.50;54.40;;;;;;5161557;27;19919;-69
2022/02/06 08:24:43;;;;;;;;;;;12.50;54.20;;;;;;5161035;27;19952;-69
2022/02/06 08:27:09;;;;;;;;;;;12.50;54.30;;;;;;5161652;27;19946;-69
2022/02/06 08:29:37;;;;;;;;;;;12.50;54.50;;;;;;5161583;27;19918;-69
2022/02/06 08:32:05;;;;;;;;;;;12.50;54.40;;;;;;5161566;27;19991;-69
2022/02/06 08:34:30;;;;;;;;;;;12.50;54.30;;;;;;5161541;27;19907;-69
2022/02/06 08:36:56;;;;;;;;;;;12.50;54.20;;;;;;5161478;27;19951;-69
2022/02/06 08:39:22;;;;;;;;;;;12.50;54.20;;;;;;5161549;27;19973;-69
2022/02/06 08:41:47;;;;;;;;;;;12.60;54.20;;;;;;5161318;27;20208;-70
2022/02/06 08:44:13;;;;;;;;;;;12.60;54.10;;;;;;5161367;27;20084;-70
2022/02/06 08:46:39;;;;;;;;;;;12.60;54.10;;;;;;5161410;27;19911;-71
2022/02/06 08:49:04;;;;;;;;;;;12.50;54.10;;;;;;5161394;27;19963;-69
2022/02/06 08:51:30;;;;;;;;;;;12.50;54.10;;;;;;5161336;27;20199;-70
2022/02/06 08:53:55;;;;;;;;;;;12.50;54.20;;;;;;5161379;27;19910;-70
2022/02/06 08:56:26;;;;;;;;;;;12.50;54.10;;;;;;5161428;27;19971;-70
2022/02/06 08:58:51;;;;;;;;;;;12.50;54.10;;;;;;5161391;27;20226;-69
2022/02/06 09:01:17;;;;;;;;;;;12.50;54.40;;;;;;5161258;27;19953;-70
2022/02/06 09:03:43;;;;;;;;;;;12.50;54.40;;;;;;5161124;27;20165;-70
2022/02/06 09:06:10;;;;;;;;;;;12.50;54.40;;;;;;5161278;27;19903;-70
2022/02/06 09:08:37;;;;;;;;;;;12.50;54.40;;;;;;5161072;27;19978;-70
2022/02/06 09:11:03;;;;;;;;;;;12.50;54.20;;;;;;5161245;27;20204;-70
2022/02/06 09:13:30;;;;;;;;;;;12.50;54.30;;;;;;5161152;27;19903;-70
2022/02/06 09:15:55;;;;;;;;;;;12.50;54.20;;;;;;5161146;27;19907;-69
2022/02/06 09:18:21;;;;;;;;;;;12.50;54.20;;;;;;5161388;27;19903;-69
2022/02/06 09:20:46;;;;;;;;;;;12.50;54.30;;;;;;5160967;27;19919;-69
2022/02/06 09:23:13;;;;;;;;;;;12.50;54.20;;;;;;5142428;27;19911;-69
2022/02/06 09:25:38;;;;;;;;;;;12.50;54.40;;;;;;5161012;27;20139;-69
2022/02/06 09:28:04;;;;;;;;;;;12.50;54.30;;;;;;5160999;27;19911;-69
2022/02/06 09:30:30;;;;;;;;;;;12.50;54.10;;;;;;5160975;27;20091;-69
2022/02/06 09:35:22;;;;;;;;;;;12.50;54.20;;;;;;5160984;27;20011;-70
2022/02/06 09:37:48;;;;;;;;;;;12.50;54.20;;;;;;5163627;27;20353;-70
2022/02/06 09:40:15;;;;;;;;;;;12.60;54.20;;;;;;5145946;27;19903;-70
2022/02/06 09:42:47;;;;;;;;;;;12.60;54.20;;;;;;5164600;27;19974;-69
2022/02/06 09:45:13;;;;;;;;;;;12.60;54.10;;;;;;5164589;27;20246;-70
2022/02/06 09:47:40;;;;;;;;;;;12.60;54.00;;;;;;5164490;27;19914;-69
2022/02/06 09:50:06;;;;;;;;;;;12.60;54.10;;;;;;5164406;27;19903;-70
2022/02/06 09:52:31;;;;;;;;;;;12.60;54.20;;;;;;5164471;27;19926;-69
2022/02/06 09:55:01;;;;;;;;;;;12.60;54.10;;;;;;5164371;27;19911;-69
2022/02/06 09:57:29;;;;;;;;;;;12.60;54.00;;;;;;5164305;27;20187;-69
2022/02/06 09:59:55;;;;;;;;;;;12.60;54.10;;;;;;5164211;27;20112;-70
2022/02/06 10:02:26;;;;;;;;;;;12.50;54.10;;;;;;5164195;27;19907;-70
2022/02/06 10:04:53;;;;;;;;;;;12.50;54.10;;;;;;5164134;27;19915;-71
2022/02/06 10:07:27;;;;;;;;;;;12.50;54.20;;;;;;5164101;27;19904;-70
2022/02/06 10:09:55;;;;;;;;;;;12.50;54.00;;;;;;5164053;27;19949;-70
2022/02/06 10:12:21;;;;;;;;;;;12.50;54.20;;;;;;5145401;27;19910;-70
2022/02/06 10:14:48;;;;;;;;;;;12.50;54.20;;;;;;5163873;27;19915;-70
2022/02/06 10:17:13;;;;;;;;;;;12.50;54.20;;;;;;5163980;27;19918;-70
2022/02/06 10:19:55;;;;;;;;;;;12.60;54.20;;;;;;5163933;27;19911;-70
2022/02/06 10:22:25;;;;;;;;;;;12.60;54.20;;;;;;5163780;27;19938;-70
2022/02/06 10:24:58;;;;;;;;;;;12.60;54.10;;;;;;5164101;27;19903;-70
2022/02/06 10:27:43;;;;;;;;;;;12.60;54.20;;;;;;5163811;27;20123;-70
2022/02/06 10:30:19;;;;;;;;;;;12.60;54.20;;;;;;5145036;27;19942;-70
2022/02/06 10:32:45;;;;;;;;;;;12.50;54.20;;;;;;5163661;27;19941;-70
2022/02/06 10:35:11;;;;;;;;;;;12.60;54.10;;;;;;5163624;27;20023;-70
2022/02/06 10:37:37;;;;;;;;;;;12.60;54.10;;;;;;5163499;27;20405;-70
2022/02/06 10:40:06;;;;;;;;;;;12.50;54.00;;;;;;5163452;27;19919;-69
2022/02/06 10:42:32;;;;;;;;;;;12.50;54.00;;;;;;5163401;27;19907;-70
2022/02/06 10:45:17;;;;;;;;;;;12.50;54.10;;;;;;5163404;27;19922;-70
2022/02/06 10:47:43;;;;;;;;;;;12.50;54.00;;;;;;5162922;27;19918;-70
2022/02/06 10:50:13;;;;;;;;;;;12.50;54.20;;;;;;5163352;27;19986;-70
2022/02/06 10:52:38;;;;;;;;;;;12.50;54.20;;;;;;5163238;27;19911;-69
2022/02/06 10:55:05;;;;;;;;;;;12.50;54.30;;;;;;5163250;27;20192;-70
2022/02/06 10:57:30;;;;;;;;;;;12.50;54.30;;;;;;5163152;27;20266;-70
2022/02/06 10:59:57;;;;;;;;;;;12.50;54.30;;;;;;5163063;27;19903;-70
2022/02/06 11:02:22;;;;;;;;;;;12.50;54.40;;;;;;5163005;27;19922;-70
2022/02/06 11:05:06;;;;;;;;;;;12.50;54.30;;;;;;5162803;27;19926;-69
2022/02/06 11:07:32;;;;;;;;;;;12.50;54.80;;;;;;5163016;27;20228;-71
2022/02/06 11:10:11;;;;;;;;;;;12.50;54.30;;;;;;5144394;27;19993;-72
2022/02/06 11:12:39;;;;;;;;;;;12.50;54.20;;;;;;5162900;27;19942;-71
2022/02/06 11:15:18;;;;;;;;;;;12.50;54.30;;;;;;5162835;27;19911;-69
2022/02/06 11:17:51;;;;;;;;;;;12.50;54.30;;;;;;5162765;27;19997;-70
2022/02/06 11:20:16;;;;;;;;;;;12.50;54.30;;;;;;5162584;27;19907;-70
2022/02/06 11:22:53;;;;;;;;;;;12.60;54.30;;;;;;5144039;27;19953;-70
2022/02/06 11:25:18;;;;;;;;;;;12.50;54.10;;;;;;5162565;27;19960;-69
2022/02/06 11:27:45;;;;;;;;;;;12.50;54.20;;;;;;5162572;27;19915;-70
2022/02/06 11:30:10;;;;;;;;;;;12.60;54.20;;;;;;5162534;27;19910;-70
2022/02/06 11:32:38;;;;;;;;;;;12.50;54.20;;;;;;5162414;27;20420;-70
2022/02/06 11:35:11;;;;;;;;;;;12.50;54.20;;;;;;5162468;27;19903;-69
2022/02/06 11:43:50;;;;;;;;;;;12.60;54.40;;;;;;5162281;27;19914;-71
2022/02/06 11:46:32;;;;;;;;;;;12.60;54.30;;;;;;5162181;27;20313;-69
2022/02/06 11:49:04;;;;;;;;;;;12.60;53.80;;;;;;5162191;27;19918;-70
2022/02/06 11:51:30;;;;;;;;;;;12.60;54.10;;;;;;5162169;27;19917;-70
2022/02/06 11:53:55;;;;;;;;;;;12.60;54.10;;;;;;5162076;27;19903;-70
2022/02/06 11:56:41;;;;;;;;;;;12.60;54.20;;;;;;5143480;27;19958;-69
2022/02/06 11:59:11;;;;;;;;;;;12.60;54.10;;;;;;5161189;27;19911;-70
2022/02/06 12:01:37;;;;;;;;;;;12.60;53.70;;;;;;5161936;27;19914;-70
2022/02/06 12:04:05;;;;;;;;;;;12.60;54.30;;;;;;5161768;27;20111;-70
2022/02/06 12:06:49;;;;;;;;;;;12.60;54.40;;;;;;5161926;27;19903;-70
2022/02/06 12:09:16;;;;;;;;;;;12.50;54.30;;;;;;5143306;27;20126;-70
2022/02/06 12:12:02;;;;;;;;;;;12.50;54.50;;;;;;5161820;27;19949;-70
2022/02/06 12:14:31;;;;;;;;;;;12.50;54.50;;;;;;5161716;27;19911;-70
2022/02/06 12:20:03;;;;;;;;;;;12.50;54.40;;;;;;5161772;27;19990;-69
2022/02/06 12:22:28;;;;;;;;;;;12.50;54.50;;;;;;5161675;27;19919;-70
2022/02/06 12:25:12;;;;;;;;;;;12.50;54.50;;;;;;5161683;27;19911;-70
2022/02/06 12:27:38;;;;;;;;;;;12.50;54.50;;;;;;5161636;27;19911;-70
2022/02/06 12:30:07;;;;;;;;;;;12.50;54.50;;;;;;5161639;27;19943;-69
2022/02/06 12:32:33;;;;;;;;;;;12.60;54.60;;;;;;5161674;27;19986;-70
2022/02/06 12:37:43;;;;;;;;;;;12.60;54.30;;;;;;5161579;27;19952;-70
2022/02/06 12:40:10;;;;;;;;;;;12.60;54.40;;;;;;5143208;27;20191;-70
2022/02/06 12:42:40;;;;;;;;;;;12.60;54.50;;;;;;5142783;27;19978;-70
2022/02/06 12:45:16;;;;;;;;;;;12.60;54.50;;;;;;5161765;27;19903;-70
2022/02/06 12:47:44;;;;;;;;;;;12.60;54.50;;;;;;5142924;27;19962;-70
2022/02/06 12:50:12;;;;;;;;;;;12.60;54.50;;;;;;5161487;27;19942;-70
2022/02/06 12:52:38;;;;;;;;;;;12.60;54.40;;;;;;5161362;27;19977;-71
2022/02/06 12:55:04;;;;;;;;;;;12.60;54.40;;;;;;5161412;27;19911;-70
2022/02/06 12:57:30;;;;;;;;;;;12.60;54.60;;;;;;5161308;27;19911;-70
2022/02/06 12:59:55;;;;;;;;;;;12.60;54.60;;;;;;5161353;27;19903;-70
2022/02/06 13:02:22;;;;;;;;;;;12.60;54.50;;;;;;5161254;27;20192;-70
2022/02/06 13:05:06;;;;;;;;;;;12.60;54.40;;;;;;5161225;27;20329;-70
2022/02/06 13:07:31;;;;;;;;;;;12.60;54.50;;;;;;5142831;27;19934;-70
2022/02/06 13:10:04;;;;;;;;;;;12.60;54.30;;;;;;5161514;27;19911;-70
2022/02/06 13:12:40;;;;;;;;;;;12.60;54.30;;;;;;5165313;27;19903;-70
2022/02/06 13:15:41;;;;;;;;;;;12.60;54.50;;;;;;5165216;27;19903;-70
2022/02/06 13:18:11;;;;;;;;;;;12.60;54.40;;;;;;5164688;27;19903;-70
2022/02/06 13:23:18;;;;;;;;;;;12.60;54.60;;;;;;5165333;27;19966;-69
2022/02/06 13:26:14;;;;;;;;;;;12.60;54.50;;;;;;5164971;27;19918;-70
2022/02/06 13:36:42;;;;;;;;;;;12.60;54.60;;;;;;5165050;27;20009;-71
2022/02/06 13:39:14;;;;;;;;;;;12.50;54.70;;;;;;5164724;27;19911;-70
2022/02/06 13:41:40;;;;;;;;;;;12.50;54.60;;;;;;5146123;27;20101;-70
2022/02/06 13:44:18;;;;;;;;;;;12.60;54.70;;;;;;5164611;27;19903;-70
2022/02/06 13:46:45;;;;;;;;;;;12.50;54.70;;;;;;5146022;27;19918;-70
2022/02/06 13:49:11;;;;;;;;;;;12.50;54.50;;;;;;5164568;27;19903;-70
2022/02/06 13:51:43;;;;;;;;;;;12.60;54.60;;;;;;5164490;27;19918;-70
2022/02/06 13:54:09;;;;;;;;;;;12.60;54.70;;;;;;5164022;27;19911;-70
2022/02/06 13:56:36;;;;;;;;;;;12.60;54.60;;;;;;5164390;27;19911;-70
2022/02/06 13:59:03;;;;;;;;;;;12.60;54.60;;;;;;5164384;27;20214;-70
2022/02/06 14:01:40;;;;;;;;;;;12.50;54.60;;;;;;5164308;27;19915;-70
2022/02/06 14:04:25;;;;;;;;;;;12.60;54.60;;;;;;5164117;27;19911;-71
2022/02/06 14:06:59;;;;;;;;;;;12.60;54.60;;;;;;5145672;27;19969;-70
2022/02/06 14:09:33;;;;;;;;;;;12.50;54.60;;;;;;5164250;27;19963;-70
2022/02/06 14:12:06;;;;;;;;;;;12.50;54.60;;;;;;5164159;27;19911;-69
2022/02/06 14:14:33;;;;;;;;;;;12.50;54.50;;;;;;5164136;27;19911;-69
2022/02/06 14:16:59;;;;;;;;;;;12.50;54.80;;;;;;5164033;27;19918;-70
2022/02/06 14:19:34;;;;;;;;;;;12.50;54.70;;;;;;5145445;27;20243;-70
2022/02/06 14:22:00;;;;;;;;;;;12.50;54.70;;;;;;5163048;27;20222;-71
2022/02/06 14:24:25;;;;;;;;;;;12.50;54.70;;;;;;5163782;27;20007;-70
2022/02/06 14:27:03;;;;;;;;;;;12.50;54.60;;;;;;5163882;27;19903;-70
2022/02/06 14:29:30;;;;;;;;;;;12.50;54.50;;;;;;5145215;27;19911;-69
2022/02/06 14:32:14;;;;;;;;;;;12.50;54.60;;;;;;5163752;27;19910;-70
2022/02/06 14:34:54;;;;;;;;;;;12.50;54.70;;;;;;5163614;27;19911;-70
2022/02/06 14:37:22;;;;;;;;;;;12.50;54.50;;;;;;5163575;27;19986;-70
2022/02/06 14:43:04;;;;;;;;;;;12.50;54.60;;;;;;5145195;27;20183;-70
2022/02/06 14:45:31;;;;;;;;;;;12.50;54.60;;;;;;5163452;27;19962;-69
2022/02/06 14:47:56;;;;;;;;;;;12.50;54.60;;;;;;5163471;27;19925;-70
2022/02/06 14:50:27;;;;;;;;;;;12.50;55.20;;;;;;5163368;27;19911;-70
2022/02/06 14:52:53;;;;;;;;;;;12.50;54.70;;;;;;5163328;27;19914;-69
2022/02/06 14:55:19;;;;;;;;;;;12.50;54.70;;;;;;5163259;27;20275;-70
2022/02/06 14:57:45;;;;;;;;;;;12.50;54.80;;;;;;5163283;27;19988;-70
2022/02/06 15:00:10;;;;;;;;;;;12.50;54.80;;;;;;5163069;27;19948;-69
2022/02/06 15:02:36;;;;;;;;;;;12.50;54.70;;;;;;5162886;27;19907;-69
2022/02/06 15:05:02;;;;;;;;;;;12.60;54.70;;;;;;5163050;27;19926;-70
2022/02/06 15:07:29;;;;;;;;;;;12.50;54.60;;;;;;5162978;27;19911;-70
2022/02/06 15:09:55;;;;;;;;;;;12.50;54.50;;;;;;5163007;27;19911;-69
2022/02/06 15:12:21;;;;;;;;;;;12.50;54.60;;;;;;5162929;27;19943;-69
2022/02/06 15:14:47;;;;;;;;;;;12.50;54.70;;;;;;5162875;27;19947;-69
2022/02/06 15:17:18;;;;;;;;;;;12.50;54.70;;;;;;5144168;27;19911;-70
2022/02/06 15:19:45;;;;;;;;;;;12.50;54.70;;;;;;5144217;27;19946;-70
2022/02/06 15:22:11;;;;;;;;;;;12.50;54.70;;;;;;5144117;27;19945;-69
2022/02/06 15:24:36;;;;;;;;;;;12.50;54.60;;;;;;5162681;27;19903;-68
2022/02/06 15:27:02;;;;;;;;;;;12.50;54.60;;;;;;5162718;27;19933;-69
2022/02/06 15:29:29;;;;;;;;;;;12.50;54.70;;;;;;5162571;27;19930;-69
2022/02/06 15:31:55;;;;;;;;;;;12.50;54.70;;;;;;5162553;27;19947;-70
2022/02/06 15:34:21;;;;;;;;;;;12.50;54.70;;;;;;5162517;27;19911;-70
2022/02/06 15:36:50;;;;;;;;;;;12.50;54.70;;;;;;5162329;27;19982;-70
2022/02/06 15:39:24;;;;;;;;;;;12.50;54.80;;;;;;5162361;27;19903;-71
2022/02/06 15:41:54;;;;;;;;;;;12.50;54.70;;;;;;5162674;27;19907;-69
2022/02/06 15:44:19;;;;;;;;;;;12.60;54.70;;;;;;5162347;27;20234;-69
2022/02/06 15:46:45;;;;;;;;;;;12.60;54.60;;;;;;5162327;27;19903;-69
2022/02/06 15:49:11;;;;;;;;;;;12.60;54.60;;;;;;5162250;27;20158;-70
2022/02/06 15:51:36;;;;;;;;;;;12.60;54.60;;;;;;5162210;27;19911;-69
2022/02/06 15:54:02;;;;;;;;;;;12.60;54.50;;;;;;5162330;27;20001;-69
2022/02/06 15:56:28;;;;;;;;;;;12.60;54.60;;;;;;5162173;27;19922;-69
2022/02/06 15:58:53;;;;;;;;;;;12.50;54.60;;;;;;5162272;27;19922;-69
2022/02/06 16:01:19;;;;;;;;;;;12.50;54.60;;;;;;5162012;27;19919;-70
2022/02/06 16:03:47;;;;;;;;;;;12.50;54.60;;;;;;5161170;27;20208;-70
2022/02/06 16:06:12;;;;;;;;;;;12.50;54.60;;;;;;5162018;27;20362;-70
2022/02/06 16:08:38;;;;;;;;;;;12.50;54.60;;;;;;5162216;27;19911;-70
2022/02/06 16:11:03;;;;;;;;;;;12.50;54.60;;;;;;5161920;27;20121;-70
2022/02/06 16:13:29;;;;;;;;;;;12.50;54.60;;;;;;5161862;27;19982;-69
2022/02/06 16:15:55;;;;;;;;;;;12.50;54.70;;;;;;5161900;27;20118;-70
2022/02/06 16:18:20;;;;;;;;;;;12.50;54.70;;;;;;5161866;27;19940;-70
2022/02/06 16:20:46;;;;;;;;;;;12.50;54.70;;;;;;5161826;27;19914;-70
2022/02/06 16:23:11;;;;;;;;;;;12.60;54.70;;;;;;5161839;27;19932;-70
2022/02/06 16:25:38;;;;;;;;;;;12.60;54.60;;;;;;5161741;27;19943;-71
2022/02/06 16:28:03;;;;;;;;;;;12.60;54.60;;;;;;5161695;27;19972;-70
2022/02/06 16:30:29;;;;;;;;;;;12.60;54.60;;;;;;5161675;27;19922;-70
2022/02/06 16:32:55;;;;;;;;;;;12.60;54.60;;;;;;5161670;27;20206;-70
2022/02/06 16:35:21;;;;;;;;;;;12.60;54.60;;;;;;5161720;27;20211;-70
2022/02/06 16:37:46;;;;;;;;;;;12.50;54.50;;;;;;5161557;27;19910;-69
2022/02/06 16:40:13;;;;;;;;;;;12.50;54.60;;;;;;5161682;27;19942;-70
2022/02/06 16:42:39;;;;;;;;;;;12.50;54.60;;;;;;5161545;27;19979;-70
2022/02/06 16:45:05;;;;;;;;;;;12.50;54.50;;;;;;5143065;27;19903;-69
2022/02/06 16:47:30;;;;;;;;;;;12.50;54.50;;;;;;5165840;27;19903;-70
2022/02/06 16:49:56;;;;;;;;;;;12.50;54.70;;;;;;5165794;27;19903;-70
2022/02/06 16:52:22;;;;;;;;;;;12.50;54.60;;;;;;5165719;27;19960;-69
2022/02/06 16:54:47;;;;;;;;;;;12.50;54.80;;;;;;5165701;27;20169;-70
2022/02/06 16:57:13;;;;;;;;;;;12.50;54.70;;;;;;5147023;27;19946;-70
2022/02/06 16:59:38;;;;;;;;;;;12.50;54.70;;;;;;5165603;27;19918;-69
2022/02/06 17:02:04;;;;;;;;;;;12.50;54.70;;;;;;5165464;27;19957;-70